createdAt,value
2023-02-11T00:00:35.406Z,0.47
2023-02-11T00:03:07.492Z,0.45
2023-02-11T00:05:39.736Z,0.43
2023-02-11T00:08:13.412Z,0.46
2023-02-11T00:10:46.617Z,0.45
2023-02-11T00:13:18.816Z,0.44
2023-02-11T00:15:51.780Z,0.39
2023-02-11T00:18:26.669Z,0.40
2023-02-11T00:20:59.540Z,0.35
2023-02-11T00:23:32.098Z,0.23
2023-02-11T00:26:04.679Z,0.28
2023-02-11T00:28:36.928Z,0.15
2023-02-11T00:31:09.667Z,0.08
2023-02-11T00:33:42.246Z,0.03
2023-02-11T00:36:23.457Z,-0.08
2023-02-11T00:38:57.248Z,-0.13
2023-02-11T00:41:30.794Z,-0.25
2023-02-11T00:44:04.878Z,-0.39
2023-02-11T00:46:37.526Z,-0.47
2023-02-11T00:49:10.298Z,-0.49
2023-02-11T00:51:42.814Z,-0.55
2023-02-11T00:54:15.123Z,-0.53
2023-02-11T00:56:47.885Z,-0.69
2023-02-11T00:59:20.331Z,-0.80
2023-02-11T01:01:52.284Z,-0.83
2023-02-11T01:04:24.602Z,-0.81
2023-02-11T01:06:56.578Z,-0.83
2023-02-11T01:09:29.966Z,-0.85
2023-02-11T01:12:03.153Z,-0.92
2023-02-11T01:14:35.310Z,-0.91
2023-02-11T01:17:08.009Z,-0.97
2023-02-11T01:19:40.599Z,-0.91
2023-02-11T01:22:12.766Z,-0.95
2023-02-11T01:24:45.180Z,-1.06
2023-02-11T01:27:17.320Z,-1.02
2023-02-11T01:29:49.346Z,-1.08
2023-02-11T01:32:21.383Z,-1.09
2023-02-11T01:34:53.477Z,-1.16
2023-02-11T01:37:25.600Z,-1.18
2023-02-11T01:39:57.511Z,-1.10
2023-02-11T01:42:30.327Z,-1.11
2023-02-11T01:45:05.227Z,-1.14
2023-02-11T01:47:37.274Z,-1.18
2023-02-11T01:50:09.336Z,-1.19
2023-02-11T01:52:43.302Z,-1.20
2023-02-11T01:55:33.711Z,-1.22
2023-02-11T01:58:07.420Z,-1.28
2023-02-11T02:00:42.148Z,-1.26
2023-02-11T02:03:23.498Z,-1.22
2023-02-11T02:06:01.343Z,-1.17
2023-02-11T02:08:39.008Z,-1.04
2023-02-11T02:11:11.604Z,-0.91
2023-02-11T02:13:43.819Z,-0.81
2023-02-11T02:16:20.169Z,-0.70
2023-02-11T02:19:04.177Z,-0.62
2023-02-11T02:21:48.126Z,-0.57
2023-02-11T02:24:26.157Z,-0.47
2023-02-11T02:27:17.893Z,-0.34
2023-02-11T02:30:07.481Z,-0.31
2023-02-11T02:32:51.417Z,-0.24
2023-02-11T02:35:32.467Z,-0.20
2023-02-11T02:38:15.947Z,-0.16
2023-02-11T02:41:00.105Z,-0.07
2023-02-11T02:43:31.902Z,-0.09
2023-02-11T02:46:15.926Z,0.11
2023-02-11T02:48:49.918Z,0.04
2023-02-11T02:51:40.456Z,0.08
2023-02-11T02:54:42.845Z,0.02
2023-02-11T02:57:37.090Z,0.01
2023-02-11T03:00:18.265Z,0.01
2023-02-11T03:03:08.441Z,0.00
2023-02-11T03:05:58.484Z,0.03
2023-02-11T03:08:39.476Z,-0.01
2023-02-11T03:11:13.534Z,-0.08
2023-02-11T03:13:47.683Z,-0.11
2023-02-11T03:16:22.703Z,-0.18
2023-02-11T03:19:06.550Z,-0.25
2023-02-11T03:21:41.470Z,-0.31
2023-02-11T03:24:16.284Z,-0.32
2023-02-11T03:26:56.902Z,-0.30
2023-02-11T03:29:48.447Z,-0.35
2023-02-11T03:32:33.001Z,-0.28
2023-02-11T03:35:16.670Z,-0.30
2023-02-11T03:38:00.584Z,-0.36
2023-02-11T03:40:35.452Z,-0.41
2023-02-11T03:43:10.469Z,-0.48
2023-02-11T03:45:42.693Z,-0.54
2023-02-11T03:48:17.787Z,-0.50
2023-02-11T03:50:52.662Z,-0.39
2023-02-11T03:53:24.834Z,-0.49
2023-02-11T03:55:59.959Z,-0.51
2023-02-11T03:58:32.173Z,-0.52
2023-02-11T04:01:05.309Z,-0.53
2023-02-11T04:03:37.741Z,-0.53
2023-02-11T04:06:10.069Z,-0.46
2023-02-11T04:08:42.646Z,-0.58
2023-02-11T04:11:15.021Z,-0.53
2023-02-11T04:13:47.667Z,-0.72
2023-02-11T04:16:20.295Z,-0.81
2023-02-11T04:18:52.334Z,-0.96
2023-02-11T04:21:24.722Z,-1.12
2023-02-11T04:23:56.842Z,-1.23
2023-02-11T04:26:29.015Z,-1.32
2023-02-11T04:29:01.235Z,-1.35
2023-02-11T04:31:33.776Z,-1.26
2023-02-11T04:34:06.350Z,-1.33
2023-02-11T04:36:38.664Z,-1.28
2023-02-11T04:39:10.871Z,-1.43
2023-02-11T04:41:43.161Z,-1.51
2023-02-11T04:44:15.636Z,-1.52
2023-02-11T04:46:48.059Z,-1.57
2023-02-11T04:49:20.172Z,-1.58
2023-02-11T04:51:52.229Z,-1.57
2023-02-11T04:54:24.527Z,-1.65
2023-02-11T04:56:56.665Z,-1.61
2023-02-11T04:59:28.619Z,-1.52
2023-02-11T05:02:00.597Z,-1.43
2023-02-11T05:04:33.052Z,-1.38
2023-02-11T05:07:05.781Z,-1.34
2023-02-11T05:09:38.460Z,-1.42
2023-02-11T05:12:10.581Z,-1.42
2023-02-11T05:14:44.146Z,-1.44
2023-02-11T05:17:16.087Z,-1.44
2023-02-11T05:19:48.388Z,-1.41
2023-02-11T05:22:22.187Z,-1.31
2023-02-11T05:24:54.772Z,-1.31
2023-02-11T05:27:26.788Z,-1.25
2023-02-11T05:29:59.642Z,-1.15
2023-02-11T05:32:34.475Z,-1.07
2023-02-11T05:35:07.805Z,-0.98
2023-02-11T05:37:40.872Z,-0.91
2023-02-11T05:40:13.641Z,-0.81
2023-02-11T05:42:45.992Z,-0.73
2023-02-11T05:45:18.259Z,-0.67
2023-02-11T05:47:50.940Z,-0.63
2023-02-11T05:50:23.229Z,-0.60
2023-02-11T05:52:56.421Z,-0.45
2023-02-11T05:55:29.243Z,-0.30
2023-02-11T05:58:01.304Z,-0.32
2023-02-11T06:00:33.550Z,-0.33
2023-02-11T06:03:06.177Z,-0.25
2023-02-11T06:05:39.250Z,-0.23
2023-02-11T06:08:11.720Z,-0.22
2023-02-11T06:10:46.774Z,-0.18
2023-02-11T06:13:19.953Z,-0.10
2023-02-11T06:15:59.686Z,-0.07
2023-02-11T06:18:33.556Z,-0.04
2023-02-11T06:21:11.316Z,0.03
2023-02-11T06:23:43.824Z,0.11
2023-02-11T06:26:21.548Z,0.13
2023-02-11T06:28:54.033Z,0.09
2023-02-11T06:31:27.427Z,0.14
2023-02-11T06:33:59.889Z,0.24
2023-02-11T06:36:32.270Z,0.24
2023-02-11T06:39:05.629Z,0.28
2023-02-11T06:41:38.114Z,0.33
2023-02-11T06:44:12.168Z,0.40
2023-02-11T06:46:44.848Z,0.50
2023-02-11T06:49:17.019Z,0.51
2023-02-11T06:51:49.151Z,0.53
2023-02-11T06:54:21.261Z,0.55
2023-02-11T06:56:53.883Z,0.60
2023-02-11T06:59:26.221Z,0.63
2023-02-11T07:01:59.368Z,0.64
2023-02-11T07:04:32.287Z,0.68
2023-02-11T07:07:06.538Z,0.69
2023-02-11T07:09:38.569Z,0.70
2023-02-11T07:12:12.658Z,0.74
2023-02-11T07:14:45.108Z,0.79
2023-02-11T07:17:18.266Z,0.89
2023-02-11T07:19:50.323Z,1.01
2023-02-11T07:22:22.426Z,1.00
2023-02-11T07:24:54.795Z,1.01
2023-02-11T07:27:28.073Z,0.91
2023-02-11T07:30:00.315Z,0.94
2023-02-11T07:32:33.439Z,1.04
2023-02-11T07:35:06.004Z,1.13
2023-02-11T07:37:38.374Z,1.20
2023-02-11T07:40:13.780Z,1.32
2023-02-11T07:42:46.336Z,1.39
2023-02-11T07:45:19.473Z,1.50
2023-02-11T07:47:52.609Z,1.81
2023-02-11T07:50:25.575Z,2.02
2023-02-11T07:52:57.888Z,2.00
2023-02-11T07:55:30.537Z,1.92
2023-02-11T07:58:02.557Z,1.89
2023-02-11T08:00:34.720Z,1.88
2023-02-11T08:03:08.485Z,1.90
2023-02-11T08:05:40.899Z,1.99
2023-02-11T08:08:13.168Z,2.09
2023-02-11T08:10:45.393Z,2.16
2023-02-11T08:13:23.370Z,2.16
2023-02-11T08:15:57.019Z,2.14
2023-02-11T08:18:29.936Z,2.04
2023-02-11T08:21:10.483Z,1.99
2023-02-11T08:23:44.517Z,2.00
2023-02-11T08:26:19.622Z,2.04
2023-02-11T08:28:53.472Z,2.05
2023-02-11T08:31:31.760Z,2.03
2023-02-11T08:34:04.489Z,2.08
2023-02-11T08:36:39.134Z,2.14
2023-02-11T08:39:20.351Z,2.22
2023-02-11T08:41:54.095Z,2.24
2023-02-11T08:44:26.861Z,2.23
2023-02-11T08:46:59.164Z,2.21
2023-02-11T08:49:32.496Z,2.22
2023-02-11T08:52:06.624Z,2.18
2023-02-11T08:54:39.335Z,2.06
2023-02-11T08:57:11.422Z,2.06
2023-02-11T08:59:45.060Z,2.07
2023-02-11T09:02:17.893Z,1.85
2023-02-11T09:04:50.974Z,1.83
2023-02-11T09:07:23.484Z,1.74
2023-02-11T09:09:55.829Z,1.79
2023-02-11T09:12:28.391Z,1.74
2023-02-11T09:15:01.120Z,1.74
2023-02-11T09:17:33.824Z,1.81
2023-02-11T09:20:06.169Z,1.77
2023-02-11T09:22:38.316Z,1.71
2023-02-11T09:25:10.871Z,1.61
2023-02-11T09:27:43.530Z,1.57
2023-02-11T09:30:17.117Z,1.51
2023-02-11T09:32:50.577Z,1.56
2023-02-11T09:35:22.998Z,1.60
2023-02-11T09:37:56.574Z,1.59
2023-02-11T09:40:28.900Z,1.60
2023-02-11T09:43:07.132Z,1.62
2023-02-11T09:45:40.272Z,1.55
2023-02-11T09:48:16.489Z,1.49
2023-02-11T09:50:54.541Z,1.43
2023-02-11T13:07:17.163Z,0.18
2023-02-11T13:10:06.473Z,0.40
2023-02-11T13:12:59.174Z,0.49
2023-02-11T13:15:32.884Z,0.59
2023-02-11T13:18:24.750Z,0.65
2023-02-11T13:21:19.323Z,0.67
2023-02-11T13:23:58.286Z,0.72
2023-02-11T13:26:42.383Z,0.67
2023-02-11T13:29:42.967Z,0.68
2023-02-11T13:32:16.037Z,0.68
2023-02-11T13:34:54.027Z,0.68
2023-02-11T13:37:40.870Z,0.64
2023-02-11T13:40:25.264Z,0.61
2023-02-11T13:42:58.724Z,0.56
2023-02-11T13:45:36.441Z,0.66
2023-02-11T13:48:20.362Z,0.50
2023-02-11T13:50:55.888Z,0.51
2023-02-11T13:53:30.858Z,0.39
2023-02-11T13:56:11.857Z,0.28
2023-02-11T13:58:52.383Z,0.24
2023-02-11T14:01:44.378Z,0.19
2023-02-11T14:04:43.049Z,0.13
2023-02-11T14:07:49.929Z,0.08
2023-02-11T14:10:44.262Z,0.07
2023-02-11T14:13:31.901Z,0.05
2023-02-11T14:16:13.975Z,0.16
2023-02-11T14:18:52.194Z,-0.01
2023-02-11T14:21:28.740Z,-0.05
2023-02-11T14:24:07.387Z,-0.06
2023-02-11T14:27:03.594Z,-0.11
2023-02-11T14:29:44.285Z,-0.08
2023-02-11T14:32:38.780Z,-0.14
2023-02-11T14:35:40.748Z,-0.14
2023-02-11T14:38:37.370Z,-0.17
2023-02-11T14:41:27.531Z,-0.15
2023-02-11T14:44:18.238Z,-0.06
2023-02-11T14:46:55.176Z,-0.08
2023-02-11T14:49:39.912Z,-0.05
2023-02-11T14:52:26.661Z,-0.09
2023-02-11T14:55:04.747Z,-0.10
2023-02-11T14:57:39.198Z,-0.10
2023-02-11T15:00:26.359Z,-0.10
2023-02-11T15:03:01.898Z,-0.12
2023-02-11T15:05:34.378Z,-0.07
2023-02-11T15:08:09.982Z,0.02
2023-02-11T15:10:44.469Z,-0.07
2023-02-11T15:13:19.834Z,-0.08
2023-02-11T15:15:55.172Z,-0.08
2023-02-11T15:18:30.907Z,-0.07
2023-02-11T15:21:04.888Z,-0.07
2023-02-11T15:23:37.586Z,-0.05
2023-02-11T15:26:18.109Z,-0.03
2023-02-11T15:28:52.188Z,-0.04
2023-02-11T15:31:27.898Z,-0.05
2023-02-11T15:34:05.716Z,-0.04
2023-02-11T15:36:40.157Z,-0.02
2023-02-11T15:39:34.560Z,-0.04
2023-02-11T15:42:38.108Z,0.03
2023-02-11T15:45:19.752Z,-0.01
2023-02-11T15:48:13.247Z,0.02
2023-02-11T15:50:51.572Z,0.03
2023-02-11T15:53:33.199Z,0.04
2023-02-11T15:56:11.617Z,0.07
2023-02-11T15:58:48.962Z,0.08
2023-02-11T16:01:23.129Z,0.07
2023-02-11T16:03:56.418Z,0.09
2023-02-11T16:06:45.606Z,0.09
2023-02-11T16:09:21.922Z,0.11
2023-02-11T16:11:58.337Z,0.12
2023-02-11T16:14:34.033Z,0.15
2023-02-11T16:17:30.903Z,0.15
2023-02-11T16:20:11.298Z,0.17
2023-02-11T16:22:48.441Z,0.18
2023-02-11T16:25:24.905Z,0.20
2023-02-11T16:27:58.632Z,0.23
2023-02-11T16:30:40.514Z,0.19
2023-02-11T16:33:18.364Z,0.19
2023-02-11T16:35:54.190Z,0.19
2023-02-11T16:38:27.549Z,0.18
2023-02-11T16:40:59.584Z,0.22
2023-02-11T16:43:33.123Z,0.19
2023-02-11T16:46:05.959Z,0.19
2023-02-11T16:48:41.468Z,0.17
2023-02-11T16:51:14.091Z,0.18
2023-02-11T16:53:46.808Z,0.15
2023-02-11T16:56:19.922Z,0.20
2023-02-11T16:58:51.674Z,0.32
2023-02-11T17:01:24.183Z,0.20
2023-02-11T17:03:58.118Z,0.20
2023-02-11T17:06:30.202Z,0.21
2023-02-11T17:09:03.905Z,0.32
2023-02-11T17:11:36.561Z,0.22
2023-02-11T17:14:12.013Z,0.25
2023-02-11T17:16:46.549Z,0.23
2023-02-11T17:19:21.217Z,0.21
2023-02-11T17:21:54.914Z,0.24
2023-02-11T17:24:27.650Z,0.25
2023-02-11T17:27:00.974Z,0.28
2023-02-11T17:29:34.633Z,0.21
2023-02-11T17:32:07.239Z,0.28
2023-02-11T17:34:39.326Z,0.40
2023-02-11T17:37:11.363Z,0.27
2023-02-11T17:39:45.059Z,0.23
2023-02-11T17:42:20.580Z,0.21
2023-02-11T17:44:51.766Z,0.21
2023-02-11T17:47:24.062Z,0.37
2023-02-11T17:49:56.097Z,0.24
2023-02-11T17:52:28.425Z,0.21
2023-02-11T17:55:00.597Z,0.20
2023-02-11T17:57:33.445Z,0.21
2023-02-11T18:00:07.174Z,0.24
2023-02-11T18:02:40.742Z,0.27
2023-02-11T18:05:13.101Z,0.28
2023-02-11T18:07:45.647Z,0.25
2023-02-11T18:10:18.029Z,0.26
2023-02-11T18:12:51.010Z,0.28
2023-02-11T18:15:24.567Z,0.29
2023-02-11T18:17:57.350Z,0.31
2023-02-11T18:20:29.986Z,0.29
2023-02-11T18:23:03.054Z,0.31
2023-02-11T18:25:35.488Z,0.33
2023-02-11T18:28:07.724Z,0.35
2023-02-11T18:30:40.077Z,0.33
2023-02-11T18:33:13.764Z,0.35
2023-02-11T18:35:47.259Z,0.33
2023-02-11T18:38:19.367Z,0.25
2023-02-11T18:40:52.603Z,0.38
2023-02-11T18:43:24.823Z,0.37
2023-02-11T18:45:57.297Z,0.38
2023-02-11T18:48:29.733Z,0.38
2023-02-11T18:51:01.824Z,0.41
2023-02-11T18:53:33.886Z,0.43
2023-02-11T18:56:11.652Z,0.43
2023-02-11T18:58:44.126Z,0.43
2023-02-11T19:01:19.274Z,0.42
2023-02-11T19:03:51.937Z,0.47
2023-02-11T19:06:27.754Z,0.46
2023-02-11T19:09:02.910Z,0.45
2023-02-11T19:11:54.648Z,0.45
2023-02-11T19:14:29.659Z,0.46
2023-02-11T19:17:04.953Z,0.50
2023-02-11T19:19:37.779Z,0.51
2023-02-11T19:22:10.873Z,0.49
2023-02-11T19:24:43.081Z,0.50
2023-02-11T19:27:15.134Z,0.52
2023-02-11T19:29:47.337Z,0.56
2023-02-11T19:32:19.547Z,0.53
2023-02-11T19:34:52.516Z,0.50
2023-02-11T19:37:25.117Z,0.58
2023-02-11T19:39:57.379Z,0.57
2023-02-11T19:42:29.711Z,0.56
2023-02-11T19:45:01.711Z,0.61
2023-02-11T19:47:34.279Z,0.55
2023-02-11T19:50:07.904Z,0.57
2023-02-11T19:52:40.920Z,0.58
2023-02-11T19:55:13.421Z,0.62
2023-02-11T19:57:45.486Z,0.63
2023-02-11T20:00:18.033Z,0.60
2023-02-11T20:02:50.408Z,0.61
2023-02-11T20:05:22.615Z,0.64
2023-02-11T20:07:55.069Z,0.65
2023-02-11T20:10:27.780Z,0.67
2023-02-11T20:12:59.880Z,0.62
2023-02-11T20:15:33.121Z,0.64
2023-02-11T20:18:05.877Z,0.62
2023-02-11T20:20:39.690Z,0.68
2023-02-11T20:23:11.827Z,0.65
2023-02-11T20:25:43.907Z,0.68
2023-02-11T20:28:16.009Z,0.67
2023-02-11T20:30:58.943Z,0.72
2023-02-11T20:33:33.472Z,0.72
2023-02-11T20:36:12.021Z,0.75
2023-02-11T20:38:44.120Z,0.89
2023-02-11T20:41:25.231Z,0.77
2023-02-11T20:43:59.406Z,0.73
2023-02-11T20:46:33.802Z,0.71
2023-02-11T20:49:06.053Z,0.72
2023-02-11T20:51:39.072Z,0.74
2023-02-11T20:54:13.992Z,0.76
2023-02-11T20:56:48.246Z,0.82
2023-02-11T20:59:21.115Z,0.87
2023-02-11T21:01:55.837Z,0.93
2023-02-11T21:04:30.620Z,0.80
2023-02-11T21:07:03.749Z,0.78
2023-02-11T21:09:36.713Z,0.76
2023-02-11T21:12:09.258Z,0.75
2023-02-11T21:14:41.443Z,0.74
2023-02-11T21:17:13.378Z,0.75
2023-02-11T21:19:45.415Z,0.76
2023-02-11T21:22:17.411Z,0.78
2023-02-11T21:24:49.419Z,0.79
2023-02-11T21:27:21.525Z,0.77
2023-02-11T21:29:54.900Z,0.77
2023-02-11T21:32:26.994Z,0.80
2023-02-11T21:35:01.862Z,0.81
2023-02-11T21:37:33.385Z,0.80
2023-02-11T21:40:05.347Z,0.81
2023-02-11T21:42:38.064Z,0.79
2023-02-11T21:45:10.890Z,0.81
2023-02-11T21:47:43.096Z,0.80
2023-02-11T21:50:15.129Z,0.80
2023-02-11T21:52:47.552Z,0.82
2023-02-11T21:55:20.098Z,0.81
2023-02-11T21:57:52.302Z,0.82
2023-02-11T22:00:25.307Z,0.84
2023-02-11T22:02:57.644Z,0.88
2023-02-11T22:05:29.615Z,0.86
2023-02-11T22:08:01.604Z,0.88
2023-02-11T22:10:33.893Z,0.88
2023-02-11T22:13:05.960Z,0.96
2023-02-11T22:15:38.458Z,0.94
2023-02-11T22:18:10.618Z,0.92
2023-02-11T22:20:43.063Z,0.92
2023-02-11T22:23:16.061Z,0.89
2023-02-11T22:25:48.337Z,0.91
2023-02-11T22:28:20.292Z,0.91
2023-02-11T22:30:56.247Z,0.91
2023-02-11T22:33:28.746Z,0.93
2023-02-11T22:36:08.851Z,1.07
2023-02-11T22:38:41.113Z,0.92
2023-02-11T22:41:13.845Z,0.92
2023-02-11T22:43:46.294Z,0.92
2023-02-11T22:46:20.283Z,0.92
2023-02-11T22:48:52.847Z,0.91
2023-02-11T22:51:27.964Z,0.93
2023-02-11T22:54:02.240Z,0.92
2023-02-11T22:56:34.314Z,0.95
2023-02-11T22:59:09.055Z,1.06
2023-02-11T23:01:41.852Z,0.96
2023-02-11T23:04:16.347Z,0.95
2023-02-11T23:06:48.587Z,0.96
2023-02-11T23:09:20.637Z,0.97
2023-02-11T23:11:54.530Z,0.97
2023-02-11T23:14:26.660Z,0.99
2023-02-11T23:16:59.740Z,0.99
2023-02-11T23:19:31.962Z,1.03
2023-02-11T23:22:05.910Z,1.06
2023-02-11T23:24:38.340Z,1.08
2023-02-11T23:27:10.763Z,1.08
2023-02-11T23:29:42.829Z,1.05
2023-02-11T23:32:14.998Z,1.07
2023-02-11T23:34:47.207Z,1.06
2023-02-11T23:37:19.432Z,1.03
2023-02-11T23:39:51.959Z,1.07
2023-02-11T23:42:23.926Z,1.05
2023-02-11T23:44:56.201Z,1.04
2023-02-11T23:47:28.493Z,1.02
2023-02-11T23:50:02.184Z,1.03
2023-02-11T23:52:34.312Z,1.04
2023-02-11T23:55:07.163Z,1.08
2023-02-11T23:57:39.273Z,1.26
